createdAt,value
2022-08-07T00:01:44.069Z,52.73
2022-08-07T00:04:11.209Z,55.32
2022-08-07T00:06:51.965Z,55.39
2022-08-07T00:09:21.150Z,55.00
2022-08-07T00:11:56.012Z,54.10
2022-08-07T00:14:30.039Z,55.31
2022-08-07T00:17:01.719Z,52.95
2022-08-07T00:19:59.657Z,54.11
2022-08-07T00:22:24.828Z,53.53
2022-08-07T00:25:06.927Z,53.91
2022-08-07T00:27:51.713Z,54.27
2022-08-07T00:30:27.745Z,53.90
2022-08-07T00:32:56.523Z,52.96
2022-08-07T00:35:24.587Z,53.41
2022-08-07T00:37:52.026Z,53.06
2022-08-07T00:40:36.520Z,53.70
2022-08-07T00:43:09.826Z,53.80
2022-08-07T00:45:41.044Z,53.46
2022-08-07T00:48:10.838Z,54.29
2022-08-07T00:50:46.323Z,53.55
2022-08-07T00:53:20.463Z,54.31
2022-08-07T00:56:00.404Z,53.71
2022-08-07T00:58:32.594Z,53.59
2022-08-07T01:00:59.947Z,52.38
2022-08-07T01:03:56.206Z,53.12
2022-08-07T01:06:15.754Z,54.68
2022-08-07T01:08:52.897Z,53.91
2022-08-07T01:12:09.831Z,52.89
2022-08-07T01:14:08.814Z,52.99
2022-08-07T01:16:36.961Z,53.00
2022-08-07T01:19:10.916Z,52.35
2022-08-07T01:21:53.204Z,52.62
2022-08-07T01:24:21.740Z,52.89
2022-08-07T01:26:52.076Z,53.13
2022-08-07T01:29:22.109Z,52.48
2022-08-07T01:31:50.994Z,52.30
2022-08-07T01:34:19.090Z,52.31
2022-08-07T01:36:52.424Z,51.94
2022-08-07T01:39:39.535Z,52.41
2022-08-07T01:42:39.377Z,53.25
2022-08-07T01:44:56.723Z,52.37
2022-08-07T01:48:21.518Z,53.83
2022-08-07T01:50:13.296Z,52.68
2022-08-07T01:52:49.735Z,53.16
2022-08-07T01:55:24.455Z,52.42
2022-08-07T01:58:01.179Z,52.90
2022-08-07T02:00:34.811Z,53.63
2022-08-07T02:03:21.234Z,52.56
2022-08-07T02:05:59.837Z,53.23
2022-08-07T02:08:29.680Z,53.47
2022-08-07T02:10:59.530Z,54.28
2022-08-07T02:13:56.709Z,54.04
2022-08-07T02:16:19.573Z,53.82
2022-08-07T02:18:48.250Z,53.51
2022-08-07T02:21:18.689Z,53.70
2022-08-07T02:23:46.156Z,54.29
2022-08-07T02:26:33.968Z,54.05
2022-08-07T02:29:02.190Z,53.92
2022-08-07T02:31:29.926Z,53.31
2022-08-07T02:34:11.223Z,53.64
2022-08-07T02:36:45.289Z,53.22
2022-08-07T02:39:16.145Z,53.43
2022-08-07T02:41:50.703Z,53.32
2022-08-07T02:44:22.289Z,52.24
2022-08-07T02:46:54.970Z,53.87
2022-08-07T02:49:28.897Z,54.82
2022-08-07T02:52:10.184Z,53.77
2022-08-07T02:54:41.698Z,54.90
2022-08-07T02:57:13.555Z,54.03
2022-08-07T02:59:55.251Z,53.48
2022-08-07T03:02:32.059Z,54.55
2022-08-07T03:05:00.110Z,54.14
2022-08-07T03:08:05.136Z,53.65
2022-08-07T03:10:20.490Z,53.06
2022-08-07T03:12:52.092Z,54.51
2022-08-07T03:15:30.328Z,54.64
2022-08-07T03:18:07.693Z,53.50
2022-08-07T03:20:36.855Z,53.24
2022-08-07T03:23:04.256Z,53.54
2022-08-07T03:25:35.539Z,53.85
2022-08-07T03:28:38.082Z,53.64
2022-08-07T03:31:17.633Z,53.38
2022-08-07T03:33:53.560Z,54.83
2022-08-07T03:36:21.480Z,53.17
2022-08-07T03:38:53.909Z,53.55
2022-08-07T03:41:42.240Z,53.64
2022-08-07T03:44:08.691Z,53.13
2022-08-07T03:46:38.141Z,52.87
2022-08-07T03:49:27.879Z,53.23
2022-08-07T03:52:01.140Z,53.09
2022-08-07T03:54:35.840Z,53.66
2022-08-07T03:59:04.903Z,52.72
2022-08-07T04:00:04.469Z,53.39
2022-08-07T04:02:47.247Z,53.70
2022-08-07T04:05:15.750Z,54.47
2022-08-07T04:07:46.723Z,52.72
2022-08-07T04:10:19.614Z,53.75
2022-08-07T04:12:48.046Z,53.94
2022-08-07T04:15:15.769Z,54.50
2022-08-07T04:18:57.257Z,54.19
2022-08-07T04:20:35.339Z,53.39
2022-08-07T04:23:06.398Z,53.56
2022-08-07T04:25:39.488Z,54.04
2022-08-07T04:28:10.238Z,54.05
2022-08-07T04:30:55.467Z,55.20
2022-08-07T04:33:26.994Z,54.55
2022-08-07T04:35:55.426Z,55.56
2022-08-07T04:38:25.657Z,55.52
2022-08-07T04:40:56.711Z,58.22
2022-08-07T04:44:12.791Z,55.83
2022-08-07T04:46:26.010Z,54.57
2022-08-07T04:49:07.413Z,55.51
2022-08-07T04:51:49.293Z,54.11
2022-08-07T04:54:29.900Z,54.79
2022-08-07T04:58:23.767Z,55.18
2022-08-07T05:00:10.982Z,54.59
2022-08-07T05:02:45.237Z,54.90
2022-08-07T05:05:52.817Z,56.39
2022-08-07T05:09:00.792Z,54.34
2022-08-07T05:11:57.348Z,54.00
2022-08-07T05:14:52.324Z,54.49
2022-08-07T05:17:17.467Z,55.50
2022-08-07T05:20:06.512Z,54.15
2022-08-07T05:22:37.615Z,54.42
2022-08-07T05:25:08.491Z,53.29
2022-08-07T05:28:16.424Z,52.94
2022-08-07T05:30:30.087Z,53.37
2022-08-07T05:33:02.573Z,55.54
2022-08-07T05:35:33.874Z,56.14
2022-08-07T05:38:09.854Z,54.40
2022-08-07T05:40:50.575Z,53.58
2022-08-07T05:43:19.158Z,53.37
2022-08-07T05:45:48.390Z,53.40
2022-08-07T05:48:17.341Z,53.86
2022-08-07T05:50:44.628Z,54.00
2022-08-07T05:54:13.913Z,54.55
2022-08-07T05:56:03.584Z,53.63
2022-08-07T05:58:36.825Z,54.80
2022-08-07T06:01:10.559Z,55.16
2022-08-07T06:03:53.392Z,53.69
2022-08-07T06:06:29.943Z,52.13
2022-08-07T06:09:01.310Z,53.59
2022-08-07T06:11:33.625Z,52.01
2022-08-07T06:14:12.213Z,51.67
2022-08-07T06:16:41.806Z,53.24
2022-08-07T06:19:52.170Z,52.96
2022-08-07T06:22:23.527Z,52.19
2022-08-07T06:24:56.794Z,51.70
2022-08-07T06:27:44.372Z,52.67
2022-08-07T06:30:24.352Z,52.43
2022-08-07T06:33:00.947Z,51.83
2022-08-07T06:35:39.019Z,51.97
2022-08-07T06:38:20.683Z,50.03
2022-08-07T06:40:51.986Z,51.74
2022-08-07T06:43:22.266Z,51.23
2022-08-07T06:45:56.279Z,50.00
2022-08-07T06:48:27.972Z,49.36
2022-08-07T06:50:57.411Z,50.90
2022-08-07T06:55:28.451Z,51.87
2022-08-07T06:56:15.092Z,52.72
2022-08-07T07:00:12.465Z,52.98
2022-08-07T07:01:44.035Z,54.57
2022-08-07T07:04:28.072Z,53.47
2022-08-07T07:07:02.303Z,53.89
2022-08-07T07:09:30.928Z,55.44
2022-08-07T07:12:16.835Z,55.91
2022-08-07T07:14:53.702Z,55.46
2022-08-07T07:17:45.214Z,55.57
2022-08-07T07:20:19.750Z,55.78
2022-08-07T07:24:08.168Z,56.06
2022-08-07T07:26:34.662Z,54.98
2022-08-07T07:29:40.387Z,54.52
2022-08-07T07:31:40.135Z,55.65
2022-08-07T07:34:13.639Z,54.89
2022-08-07T07:36:43.156Z,54.42
2022-08-07T07:39:15.326Z,54.22
2022-08-07T07:42:02.058Z,54.33
2022-08-07T07:44:30.009Z,53.41
2022-08-07T07:47:11.955Z,51.59
2022-08-07T07:50:34.441Z,52.48
2022-08-07T07:52:33.579Z,51.27
2022-08-07T07:55:01.174Z,52.67
2022-08-07T07:57:53.412Z,52.16
2022-08-07T08:00:29.428Z,50.78
2022-08-07T08:04:06.061Z,49.84
2022-08-07T08:06:06.587Z,49.13
2022-08-07T08:08:39.294Z,47.85
2022-08-07T08:11:16.039Z,47.53
2022-08-07T08:13:54.571Z,49.33
2022-08-07T08:16:36.837Z,46.79
2022-08-07T08:19:17.260Z,47.39
2022-08-07T08:22:11.344Z,47.97
2022-08-07T08:25:18.484Z,45.21
2022-08-07T08:27:56.593Z,45.20
2022-08-07T08:30:29.518Z,45.56
2022-08-07T08:32:57.509Z,46.43
2022-08-07T08:35:28.571Z,48.69
2022-08-07T08:38:00.532Z,46.27
2022-08-07T08:40:36.504Z,46.50
2022-08-07T08:43:42.195Z,46.50
2022-08-07T08:46:13.324Z,46.20
2022-08-07T08:48:51.455Z,46.58
2022-08-07T08:51:29.611Z,46.57
2022-08-07T08:54:20.958Z,44.33
2022-08-07T08:56:52.304Z,42.92
2022-08-07T08:59:29.081Z,43.45
2022-08-07T09:02:08.985Z,42.96
2022-08-07T09:04:36.674Z,42.01
2022-08-07T09:07:25.153Z,44.00
2022-08-07T09:09:56.638Z,42.56
2022-08-07T09:12:56.583Z,41.55
2022-08-07T09:16:20.045Z,41.61
2022-08-07T09:18:25.518Z,42.58
2022-08-07T09:20:58.604Z,42.88
2022-08-07T09:24:34.137Z,42.84
2022-08-07T09:26:23.490Z,41.56
2022-08-07T09:30:04.694Z,41.60
2022-08-07T09:31:48.438Z,40.05
2022-08-07T09:34:27.200Z,41.21
2022-08-07T09:36:54.868Z,41.95
2022-08-07T09:39:52.782Z,41.90
2022-08-07T09:42:17.285Z,42.05
2022-08-07T09:47:52.606Z,41.48
2022-08-07T09:48:01.520Z,42.40
2022-08-07T09:50:31.554Z,42.51
2022-08-07T09:53:00.369Z,40.65
2022-08-07T09:56:03.786Z,39.39
2022-08-07T09:58:42.230Z,39.88
2022-08-07T10:01:14.853Z,40.08
2022-08-07T10:04:06.676Z,41.11
2022-08-07T10:07:00.873Z,41.16
2022-08-07T10:09:59.079Z,43.37
2022-08-07T10:12:28.833Z,42.76
2022-08-07T10:14:56.236Z,40.50
2022-08-07T10:18:00.744Z,41.23
2022-08-07T10:20:32.383Z,41.27
2022-08-07T10:23:09.766Z,41.25
2022-08-07T10:25:43.698Z,43.04
2022-08-07T10:28:31.060Z,41.76
2022-08-07T10:31:11.266Z,41.22
2022-08-07T10:34:06.265Z,41.40
2022-08-07T10:36:29.669Z,41.37
2022-08-07T10:39:05.797Z,39.76
2022-08-07T10:41:53.863Z,41.20
2022-08-07T10:44:39.961Z,42.87
2022-08-07T10:47:14.222Z,39.86
2022-08-07T10:50:01.766Z,41.20
2022-08-07T10:52:40.065Z,39.74
2022-08-07T10:55:45.577Z,39.23
2022-08-07T10:58:36.433Z,38.70
2022-08-07T11:01:11.752Z,37.67
2022-08-07T11:03:55.253Z,38.35
2022-08-07T11:06:34.788Z,39.32
2022-08-07T11:09:03.881Z,37.44
2022-08-07T11:11:54.842Z,37.14
2022-08-07T11:14:45.088Z,37.77
2022-08-07T11:17:42.704Z,35.97
2022-08-07T11:20:12.063Z,35.78
2022-08-07T11:22:46.262Z,35.54
2022-08-07T11:25:16.801Z,34.59
2022-08-07T11:28:03.283Z,36.19
2022-08-07T11:30:42.131Z,38.20
2022-08-07T11:33:15.810Z,37.47
2022-08-07T11:35:59.712Z,37.69
2022-08-07T11:38:30.747Z,37.59
2022-08-07T11:41:03.345Z,37.61
2022-08-07T11:44:11.216Z,37.21
2022-08-07T11:46:36.666Z,38.99
2022-08-07T11:49:51.044Z,38.47
2022-08-07T11:52:18.973Z,37.76
2022-08-07T11:55:12.931Z,36.88
2022-08-07T11:58:00.792Z,36.80
2022-08-07T12:00:31.443Z,36.69
2022-08-07T12:03:02.404Z,36.73
2022-08-07T12:05:51.330Z,35.31
2022-08-07T12:08:37.458Z,36.13
2022-08-07T12:11:20.251Z,36.03
2022-08-07T12:13:49.113Z,35.69
2022-08-07T12:16:28.952Z,35.90
2022-08-07T12:19:04.262Z,36.59
2022-08-07T12:22:36.701Z,35.45
2022-08-07T12:24:40.292Z,35.38
2022-08-07T12:27:16.506Z,34.92
2022-08-07T12:29:54.635Z,33.96
2022-08-07T12:32:30.458Z,33.96
2022-08-07T12:34:58.311Z,34.71
2022-08-07T12:37:28.511Z,34.38
2022-08-07T12:40:30.026Z,32.93
2022-08-07T12:43:09.870Z,33.85
2022-08-07T12:45:39.733Z,32.55
2022-08-07T12:48:13.194Z,32.41
2022-08-07T12:51:01.546Z,32.54
2022-08-07T12:54:24.119Z,32.06
2022-08-07T12:56:36.705Z,32.75
2022-08-07T12:59:05.218Z,31.49
2022-08-07T13:01:42.775Z,31.14
2022-08-07T13:04:34.289Z,30.94
2022-08-07T13:08:14.336Z,30.60
2022-08-07T13:10:28.527Z,30.17
2022-08-07T13:13:47.558Z,30.60
2022-08-07T13:16:08.977Z,30.84
2022-08-07T13:18:44.684Z,31.00
2022-08-07T13:21:50.230Z,30.84
2022-08-07T13:24:30.851Z,32.05
2022-08-07T13:27:02.909Z,32.24
2022-08-07T13:29:36.413Z,33.00
2022-08-07T13:32:32.376Z,31.62
2022-08-07T13:35:15.956Z,30.77
2022-08-07T13:38:05.653Z,31.17
2022-08-07T13:40:46.998Z,31.98
2022-08-07T13:43:16.372Z,33.01
2022-08-07T13:46:11.929Z,32.83
2022-08-07T13:48:34.629Z,32.85
2022-08-07T13:51:27.704Z,33.18
2022-08-07T13:53:59.719Z,31.63
2022-08-07T13:56:36.389Z,31.47
2022-08-07T13:59:10.266Z,31.51
2022-08-07T14:02:04.161Z,31.14
2022-08-07T14:04:36.034Z,31.05
2022-08-07T14:07:05.596Z,31.69
2022-08-07T14:10:01.534Z,30.26
2022-08-07T14:12:36.203Z,30.20
2022-08-07T14:15:11.161Z,30.71
2022-08-07T14:18:23.990Z,31.13
2022-08-07T14:20:43.529Z,30.79
2022-08-07T14:23:14.923Z,31.04
2022-08-07T14:25:59.691Z,32.83
2022-08-07T14:28:32.208Z,32.30
2022-08-07T14:31:16.395Z,31.99
2022-08-07T14:33:44.226Z,31.65
2022-08-07T14:36:14.931Z,32.97
2022-08-07T14:38:50.413Z,33.88
2022-08-07T14:41:34.041Z,33.83
2022-08-07T14:44:15.829Z,34.20
2022-08-07T14:46:51.851Z,34.38
2022-08-07T14:49:57.212Z,32.46
2022-08-07T14:52:18.933Z,34.65
2022-08-07T14:54:46.623Z,33.24
2022-08-07T14:57:21.292Z,31.53
2022-08-07T15:00:03.187Z,32.69
2022-08-07T15:05:23.553Z,32.76
2022-08-07T15:07:52.141Z,31.98
2022-08-07T15:10:25.995Z,32.80
2022-08-07T15:12:55.314Z,32.96
2022-08-07T15:15:37.869Z,32.76
2022-08-07T15:18:14.280Z,32.89
2022-08-07T15:20:57.496Z,32.63
2022-08-07T15:26:20.881Z,31.26
2022-08-07T15:28:56.648Z,31.69
2022-08-07T15:32:01.274Z,31.31
2022-08-07T15:34:14.969Z,30.24
2022-08-07T15:37:03.964Z,31.94
2022-08-07T15:39:56.805Z,32.12
2022-08-07T15:42:44.659Z,31.87
2022-08-07T15:45:19.347Z,31.56
2022-08-07T15:48:01.101Z,33.19
2022-08-07T15:51:02.055Z,33.08
2022-08-07T15:53:51.629Z,32.78
2022-08-07T15:56:20.175Z,33.15
2022-08-07T15:58:58.382Z,32.83
2022-08-07T16:01:38.521Z,33.29
2022-08-07T16:04:14.921Z,32.73
2022-08-07T16:06:52.342Z,33.44
2022-08-07T16:09:42.073Z,33.59
2022-08-07T16:12:11.981Z,33.82
2022-08-07T16:14:42.822Z,34.09
2022-08-07T16:18:02.552Z,32.92
2022-08-07T16:20:33.477Z,33.04
2022-08-07T16:23:11.856Z,33.44
2022-08-07T16:25:52.323Z,32.64
2022-08-07T16:30:06.723Z,33.06
2022-08-07T16:31:50.820Z,32.98
2022-08-07T16:34:07.369Z,34.17
2022-08-07T16:37:01.669Z,33.28
2022-08-07T16:39:40.142Z,34.95
2022-08-07T16:42:30.865Z,33.84
2022-08-07T16:45:23.292Z,34.33
2022-08-07T16:48:02.690Z,34.66
2022-08-07T16:51:07.220Z,35.09
2022-08-07T16:54:03.006Z,34.90
2022-08-07T16:56:40.017Z,34.33
2022-08-07T16:59:17.825Z,33.73
2022-08-07T17:01:56.774Z,34.45
2022-08-07T17:04:30.595Z,34.55
2022-08-07T17:07:28.383Z,35.06
2022-08-07T17:10:09.298Z,34.28
2022-08-07T17:13:14.029Z,34.61
2022-08-07T17:15:51.602Z,34.37
2022-08-07T17:18:46.102Z,34.17
2022-08-07T17:21:18.466Z,33.89
2022-08-07T17:24:02.061Z,33.76
2022-08-07T17:26:49.836Z,34.01
2022-08-07T17:30:15.158Z,33.52
2022-08-07T17:32:14.037Z,33.86
2022-08-07T17:35:50.271Z,33.33
2022-08-07T17:38:05.942Z,33.60
2022-08-07T17:40:40.231Z,33.68
2022-08-07T17:43:18.466Z,33.67
2022-08-07T17:45:58.302Z,33.86
2022-08-07T17:48:44.374Z,33.94
2022-08-07T17:51:59.642Z,33.91
2022-08-07T17:54:29.881Z,34.65
2022-08-07T17:57:32.089Z,34.34
2022-08-07T18:00:33.122Z,33.58
2022-08-07T18:03:25.399Z,34.16
2022-08-07T18:06:09.512Z,34.76
2022-08-07T18:09:01.857Z,35.23
2022-08-07T18:12:16.032Z,35.89
2022-08-07T18:14:46.153Z,34.95
2022-08-07T18:18:39.640Z,35.69
2022-08-07T18:21:11.508Z,36.34
2022-08-07T18:23:42.265Z,36.27
2022-08-07T18:26:01.030Z,36.59
2022-08-07T18:28:57.705Z,35.91
2022-08-07T18:31:40.634Z,36.79
2022-08-07T18:34:37.889Z,36.32
2022-08-07T18:37:13.118Z,35.65
2022-08-07T18:40:06.787Z,35.15
2022-08-07T18:43:06.623Z,35.07
2022-08-07T18:45:43.907Z,34.93
2022-08-07T18:50:30.306Z,35.26
2022-08-07T18:52:34.001Z,35.06
2022-08-07T18:54:27.725Z,35.49
2022-08-07T18:57:30.592Z,35.52
2022-08-07T19:00:32.633Z,36.23
2022-08-07T19:03:04.169Z,36.38
2022-08-07T19:06:02.226Z,36.73
2022-08-07T19:08:34.533Z,37.08
2022-08-07T19:11:35.281Z,37.08
2022-08-07T19:13:52.911Z,37.05
2022-08-07T19:17:00.734Z,37.54
2022-08-07T19:19:36.114Z,36.81
2022-08-07T19:22:11.213Z,37.15
2022-08-07T19:24:44.769Z,36.83
2022-08-07T19:28:29.539Z,36.70
2022-08-07T19:31:00.064Z,37.16
2022-08-07T19:32:51.334Z,37.26
2022-08-07T19:35:22.569Z,37.27
2022-08-07T19:37:57.341Z,37.10
2022-08-07T19:40:31.371Z,35.65
2022-08-07T19:43:09.129Z,34.63
2022-08-07T19:46:06.204Z,33.67
2022-08-07T19:48:31.087Z,33.28
2022-08-07T19:51:19.809Z,33.50
2022-08-07T19:54:31.046Z,34.20
2022-08-07T19:58:02.555Z,34.06
2022-08-07T19:59:41.159Z,35.43
2022-08-07T20:02:19.546Z,36.70
2022-08-07T20:04:50.102Z,35.50
2022-08-07T20:07:23.400Z,34.85
2022-08-07T20:10:36.866Z,33.73
2022-08-07T20:12:43.142Z,33.59
2022-08-07T20:15:18.810Z,32.98
2022-08-07T20:18:01.835Z,34.52
2022-08-07T20:20:31.932Z,33.29
2022-08-07T20:23:10.991Z,33.99
2022-08-07T20:25:56.369Z,33.68
2022-08-07T20:28:29.532Z,33.47
2022-08-07T20:30:58.135Z,33.97
2022-08-07T20:33:37.972Z,34.75
2022-08-07T20:36:09.152Z,34.07
2022-08-07T20:38:53.303Z,34.32
2022-08-07T20:41:34.094Z,34.11
2022-08-07T20:44:06.071Z,33.32
2022-08-07T20:46:43.699Z,33.30
2022-08-07T20:49:59.099Z,33.34
2022-08-07T20:52:00.574Z,33.75
2022-08-07T20:54:29.647Z,33.90
2022-08-07T20:57:00.851Z,34.27
2022-08-07T21:00:06.736Z,34.45
2022-08-07T21:02:38.260Z,34.37
2022-08-07T21:05:16.244Z,34.41
2022-08-07T21:07:49.634Z,34.84
2022-08-07T21:10:18.096Z,34.61
2022-08-07T21:12:52.518Z,35.16
2022-08-07T21:15:21.692Z,35.04
2022-08-07T21:18:20.537Z,35.11
2022-08-07T21:20:59.379Z,35.33
2022-08-07T21:23:42.677Z,35.43
2022-08-07T21:26:35.621Z,35.86
2022-08-07T21:29:06.367Z,35.87
2022-08-07T21:32:47.038Z,36.07
2022-08-07T21:34:48.710Z,36.24
2022-08-07T21:37:26.327Z,36.51
2022-08-07T21:40:23.303Z,36.54
2022-08-07T21:42:56.047Z,37.09
2022-08-07T21:46:10.300Z,37.06
2022-08-07T21:48:28.943Z,37.55
2022-08-07T21:51:19.481Z,37.28
2022-08-07T21:53:53.074Z,37.82
2022-08-07T21:56:47.774Z,37.67
2022-08-07T21:59:26.681Z,36.73
2022-08-07T22:02:11.006Z,37.70
2022-08-07T22:04:53.808Z,38.00
2022-08-07T22:07:22.781Z,38.02
2022-08-07T22:10:01.473Z,37.92
2022-08-07T22:12:32.604Z,38.58
2022-08-07T22:16:43.878Z,38.55
2022-08-07T22:18:05.042Z,37.75
2022-08-07T22:20:39.738Z,38.44
2022-08-07T22:23:23.119Z,38.22
2022-08-07T22:26:10.085Z,38.08
2022-08-07T22:28:52.955Z,38.25
2022-08-07T22:31:56.075Z,38.11
2022-08-07T22:34:38.486Z,38.68
2022-08-07T22:37:18.160Z,38.17
2022-08-07T22:40:05.089Z,38.14
2022-08-07T22:42:33.477Z,38.52
2022-08-07T22:45:02.314Z,38.20
2022-08-07T22:47:49.364Z,38.78
2022-08-07T22:50:29.112Z,38.71
2022-08-07T22:53:00.516Z,39.01
2022-08-07T22:55:34.138Z,39.37
2022-08-07T22:58:09.352Z,38.94
2022-08-07T23:00:43.481Z,38.57
2022-08-07T23:03:21.837Z,38.55
2022-08-07T23:06:07.699Z,38.90
2022-08-07T23:08:55.891Z,39.21
2022-08-07T23:11:59.423Z,38.99
2022-08-07T23:14:35.650Z,39.01
2022-08-07T23:17:08.556Z,40.35
2022-08-07T23:20:12.566Z,38.98
2022-08-07T23:22:40.904Z,39.88
2022-08-07T23:25:20.842Z,40.09
2022-08-07T23:28:21.721Z,39.83
2022-08-07T23:31:06.983Z,40.02
2022-08-07T23:34:36.480Z,40.59
2022-08-07T23:36:35.162Z,41.31
2022-08-07T23:39:25.696Z,41.12
2022-08-07T23:42:09.978Z,40.68
2022-08-07T23:44:46.047Z,41.61
2022-08-07T23:47:20.431Z,42.39
2022-08-07T23:50:07.690Z,41.84
2022-08-07T23:53:01.774Z,41.60
2022-08-07T23:55:53.573Z,41.64
2022-08-07T23:58:35.345Z,41.42
